createdAt,value
2019-02-15T00:03:17.819Z,71.69
2019-02-15T00:07:24.809Z,72.53
2019-02-15T00:11:31.640Z,72.76
2019-02-15T00:15:38.498Z,73.28
2019-02-15T00:19:49.347Z,73.80
2019-02-15T00:23:56.192Z,73.54
2019-02-15T00:28:03.326Z,74.18
2019-02-15T00:32:10.434Z,73.95
2019-02-15T00:36:17.539Z,74.32
2019-02-15T00:40:24.643Z,74.76
2019-02-15T00:44:31.461Z,74.20
2019-02-15T00:48:38.635Z,74.10
2019-02-15T00:52:54.855Z,73.90
2019-02-15T00:57:29.619Z,73.91
2019-02-15T01:02:07.975Z,73.62
2019-02-15T01:06:37.440Z,73.97
2019-02-15T01:10:49.909Z,73.96
2019-02-15T01:14:57.957Z,73.67
2019-02-15T01:19:05.120Z,73.33
2019-02-15T01:23:12.338Z,72.84
2019-02-15T01:27:38.286Z,72.54
2019-02-15T01:32:07.198Z,72.36
2019-02-15T01:36:33.118Z,72.23
2019-02-15T01:40:55.131Z,71.67
2019-02-15T01:45:16.027Z,71.80
2019-02-15T01:49:22.953Z,71.28
2019-02-15T01:53:30.263Z,71.21
2019-02-15T01:57:38.243Z,70.69
2019-02-15T02:01:45.328Z,70.45
2019-02-15T02:05:52.451Z,70.57
2019-02-15T02:09:59.330Z,70.31
2019-02-15T02:14:06.247Z,70.78
2019-02-15T02:18:13.226Z,71.00
2019-02-15T02:22:20.366Z,71.50
2019-02-15T02:26:27.358Z,71.62
2019-02-15T02:30:34.354Z,71.41
2019-02-15T02:34:41.591Z,71.75
2019-02-15T02:38:48.458Z,72.14
2019-02-15T02:42:55.687Z,72.64
2019-02-15T02:47:02.663Z,73.09
2019-02-15T02:51:09.709Z,74.09
2019-02-15T02:55:16.674Z,74.01
2019-02-15T02:59:23.679Z,73.73
2019-02-15T03:03:30.895Z,74.21
2019-02-15T03:07:37.935Z,74.85
2019-02-15T03:11:45.012Z,75.39
2019-02-15T03:15:52.173Z,75.38
2019-02-15T03:19:59.273Z,75.90
2019-02-15T03:24:06.354Z,75.65
2019-02-15T03:28:13.544Z,75.34
2019-02-15T03:32:20.448Z,75.54
2019-02-15T03:36:46.645Z,76.22
2019-02-15T03:40:57.440Z,76.50
2019-02-15T03:45:04.703Z,76.57
2019-02-15T03:49:11.590Z,76.56
2019-02-15T03:53:19.006Z,77.21
2019-02-15T03:57:26.186Z,76.39
2019-02-15T04:01:33.551Z,76.51
2019-02-15T04:05:40.863Z,76.52
2019-02-15T04:09:47.767Z,77.12
2019-02-15T04:13:54.828Z,77.50
2019-02-15T04:18:01.747Z,77.99
2019-02-15T04:22:08.583Z,78.35
2019-02-15T04:26:15.549Z,78.57
2019-02-15T04:30:22.338Z,78.15
2019-02-15T04:34:29.153Z,77.99
2019-02-15T04:38:35.997Z,78.12
2019-02-15T04:42:42.831Z,78.58
2019-02-15T04:46:50.195Z,78.42
2019-02-15T04:50:57.263Z,77.95
2019-02-15T04:55:04.340Z,78.14
2019-02-15T04:59:11.187Z,78.14
2019-02-15T05:03:19.432Z,79.50
2019-02-15T05:07:26.649Z,79.44
2019-02-15T05:11:33.554Z,78.81
2019-02-15T05:15:40.387Z,78.51
2019-02-15T05:19:47.221Z,78.67
2019-02-15T05:23:54.135Z,78.60
2019-02-15T05:28:01.091Z,78.65
2019-02-15T05:32:07.852Z,78.37
2019-02-15T05:36:14.849Z,78.25
2019-02-15T05:40:21.653Z,77.96
2019-02-15T05:44:28.461Z,78.06
2019-02-15T05:48:35.338Z,77.90
2019-02-15T05:52:42.294Z,77.44
2019-02-15T05:56:49.152Z,77.30
2019-02-15T06:00:56.026Z,77.08
2019-02-15T06:05:02.858Z,77.48
2019-02-15T06:09:09.743Z,77.47
2019-02-15T06:13:16.647Z,76.99
2019-02-15T06:17:23.641Z,76.84
2019-02-15T06:21:32.134Z,76.81
2019-02-15T06:25:39.101Z,76.65
2019-02-15T06:29:45.922Z,76.57
2019-02-15T06:33:53.504Z,77.15
2019-02-15T06:38:02.806Z,78.75
2019-02-15T06:42:09.971Z,77.87
2019-02-15T06:46:17.139Z,75.17
2019-02-15T06:50:24.230Z,75.40
2019-02-15T06:54:31.489Z,74.75
2019-02-15T06:58:45.672Z,75.24
2019-02-15T07:02:58.720Z,74.21
2019-02-15T07:07:06.580Z,74.17
2019-02-15T07:11:13.815Z,74.25
2019-02-15T07:15:21.003Z,73.77
2019-02-15T07:19:27.879Z,73.71
2019-02-15T07:23:34.859Z,73.98
2019-02-15T07:27:42.807Z,73.75
2019-02-15T07:31:49.786Z,73.58
2019-02-15T07:35:56.850Z,73.63
2019-02-15T07:40:03.819Z,73.24
2019-02-15T07:44:10.970Z,72.82
2019-02-15T07:48:17.981Z,72.14
2019-02-15T07:52:24.971Z,71.46
2019-02-15T07:56:32.074Z,71.27
2019-02-15T08:00:39.035Z,70.33
2019-02-15T08:04:45.988Z,69.54
2019-02-15T08:08:52.898Z,68.62
2019-02-15T08:13:00.009Z,67.60
2019-02-15T08:17:08.153Z,67.18
2019-02-15T08:21:15.084Z,65.31
2019-02-15T08:25:22.098Z,63.33
2019-02-15T08:29:29.123Z,63.75
2019-02-15T08:33:36.434Z,62.87
2019-02-15T08:37:43.307Z,61.69
2019-02-15T08:42:01.735Z,59.92
2019-02-15T08:46:05.540Z,58.42
2019-02-15T08:50:12.756Z,58.51
2019-02-15T08:54:19.865Z,57.91
2019-02-15T08:58:27.001Z,58.17
2019-02-15T09:02:33.920Z,57.12
2019-02-15T09:06:40.940Z,55.87
2019-02-15T09:10:50.360Z,54.10
2019-02-15T09:14:58.761Z,53.70
2019-02-15T09:19:07.101Z,54.51
2019-02-15T09:23:14.095Z,53.72
2019-02-15T09:27:47.119Z,51.28
2019-02-15T09:31:54.048Z,52.23
2019-02-15T09:36:00.899Z,52.56
2019-02-15T09:40:08.654Z,52.19
2019-02-15T09:44:15.746Z,50.47
2019-02-15T09:48:22.683Z,51.74
2019-02-15T09:52:29.734Z,51.19
2019-02-15T09:56:36.589Z,52.26
2019-02-15T10:00:43.485Z,51.98
2019-02-15T10:04:50.359Z,52.10
2019-02-15T10:08:57.192Z,51.65
2019-02-15T10:13:05.138Z,51.72
2019-02-15T10:17:12.055Z,51.48
2019-02-15T10:21:18.953Z,51.77
2019-02-15T10:25:25.777Z,51.04
2019-02-15T10:29:32.712Z,51.69
2019-02-15T10:33:39.572Z,50.79
2019-02-15T10:37:46.459Z,49.58
2019-02-15T10:41:53.501Z,49.02
2019-02-15T10:46:00.690Z,48.40
2019-02-15T10:50:08.799Z,47.26
2019-02-15T10:54:16.235Z,46.81
2019-02-15T10:58:23.401Z,46.33
2019-02-15T11:02:30.639Z,44.82
2019-02-15T11:06:37.594Z,44.94
2019-02-15T11:10:44.669Z,45.06
2019-02-15T11:14:51.517Z,44.58
2019-02-15T11:18:58.360Z,44.48
2019-02-15T11:23:05.328Z,44.69
2019-02-15T11:27:12.341Z,44.58
2019-02-15T11:31:19.340Z,44.44
2019-02-15T11:35:26.233Z,44.91
2019-02-15T11:39:33.228Z,43.37
2019-02-15T11:43:43.524Z,42.93
2019-02-15T11:47:50.744Z,43.36
2019-02-15T11:51:59.237Z,42.09
2019-02-15T11:56:06.246Z,41.87
2019-02-15T12:00:20.196Z,40.63
2019-02-15T12:04:27.554Z,41.04
2019-02-15T12:08:34.595Z,40.86
2019-02-15T12:12:44.854Z,38.64
2019-02-15T12:16:51.806Z,37.81
2019-02-15T12:20:58.902Z,36.83
2019-02-15T12:25:06.041Z,36.74
2019-02-15T12:29:13.080Z,35.44
2019-02-15T12:33:35.594Z,35.33
2019-02-15T12:37:42.928Z,34.97
2019-02-15T12:41:50.259Z,34.39
2019-02-15T12:45:57.588Z,31.64
2019-02-15T12:50:05.426Z,32.22
2019-02-15T12:54:13.279Z,32.10
2019-02-15T12:58:22.927Z,32.45
2019-02-15T13:02:30.286Z,31.97
2019-02-15T13:06:39.732Z,31.09
2019-02-15T13:10:47.344Z,32.27
2019-02-15T13:14:54.639Z,30.56
2019-02-15T13:19:05.485Z,29.93
2019-02-15T13:23:13.244Z,30.36
2019-02-15T13:27:22.544Z,29.71
2019-02-15T13:31:41.224Z,28.91
2019-02-15T13:35:52.592Z,29.94
2019-02-15T13:40:08.210Z,29.92
2019-02-15T13:44:17.753Z,30.07
2019-02-15T13:48:32.933Z,31.98
2019-02-15T13:52:39.993Z,32.04
2019-02-15T13:56:46.969Z,32.08
2019-02-15T14:00:53.941Z,32.80
2019-02-15T14:05:01.139Z,33.71
2019-02-15T14:09:11.814Z,34.10
2019-02-15T14:13:19.228Z,34.31
2019-02-15T14:17:26.784Z,35.30
2019-02-15T14:21:43.940Z,35.39
2019-02-15T14:25:43.909Z,35.87
2019-02-15T14:29:51.357Z,36.52
2019-02-15T14:34:04.638Z,36.49
2019-02-15T14:38:12.532Z,36.49
2019-02-15T14:42:19.580Z,36.44
2019-02-15T14:46:26.573Z,36.71
2019-02-15T14:50:33.713Z,36.79
2019-02-15T14:54:40.929Z,36.90
2019-02-15T14:58:48.030Z,37.25
2019-02-15T15:02:55.167Z,36.77
2019-02-15T15:07:02.296Z,36.57
2019-02-15T15:11:09.373Z,36.78
2019-02-15T15:15:20.954Z,35.71
2019-02-15T15:19:28.383Z,35.56
2019-02-15T15:23:35.718Z,35.35
2019-02-15T15:27:45.135Z,34.75
2019-02-15T15:31:52.164Z,35.50
2019-02-15T15:35:59.669Z,37.82
2019-02-15T15:40:08.037Z,35.40
2019-02-15T15:44:16.050Z,34.85
2019-02-15T15:48:23.179Z,34.69
2019-02-15T15:52:34.155Z,34.72
2019-02-15T15:56:41.837Z,34.82
2019-02-15T16:00:49.339Z,34.98
2019-02-15T16:04:56.906Z,35.47
2019-02-15T16:09:06.220Z,35.56
2019-02-15T16:13:15.058Z,35.92
2019-02-15T16:17:23.736Z,36.24
2019-02-15T16:21:31.008Z,36.50
2019-02-15T16:25:38.255Z,36.80
2019-02-15T16:29:45.940Z,37.11
2019-02-15T16:33:52.955Z,37.48
2019-02-15T16:37:59.971Z,38.09
2019-02-15T16:42:06.841Z,39.04
2019-02-15T16:46:13.993Z,40.30
2019-02-15T16:50:21.128Z,41.47
2019-02-15T16:54:28.022Z,42.02
2019-02-15T16:58:35.108Z,42.76
2019-02-15T17:02:41.992Z,42.94
2019-02-15T17:06:49.425Z,44.13
2019-02-15T17:10:56.625Z,46.11
2019-02-15T17:15:04.208Z,46.95
2019-02-15T17:19:11.504Z,47.43
2019-02-15T17:23:18.439Z,47.81
2019-02-15T17:27:26.023Z,48.28
2019-02-15T17:31:32.996Z,48.72
2019-02-15T17:35:40.151Z,49.24
2019-02-15T17:39:47.436Z,49.86
2019-02-15T17:43:54.593Z,50.07
2019-02-15T17:48:02.023Z,49.69
2019-02-15T17:52:11.834Z,50.32
2019-02-15T17:56:19.455Z,50.35
2019-02-15T18:00:32.950Z,50.13
2019-02-15T18:04:41.936Z,49.57
2019-02-15T18:08:52.605Z,48.77
2019-02-15T18:13:01.663Z,48.77
2019-02-15T18:17:09.969Z,48.67
2019-02-15T18:21:18.373Z,48.74
2019-02-15T18:25:25.656Z,49.24
2019-02-15T18:29:37.259Z,49.72
2019-02-15T18:33:44.948Z,49.29
2019-02-15T18:37:52.385Z,49.33
2019-02-15T18:42:01.636Z,49.92
2019-02-15T18:46:09.272Z,50.26
2019-02-15T18:50:17.466Z,50.34
2019-02-15T18:54:25.641Z,51.05
2019-02-15T18:58:32.674Z,51.77
2019-02-15T19:02:40.323Z,51.79
2019-02-15T19:06:47.371Z,51.99
2019-02-15T19:10:54.849Z,52.42
2019-02-15T19:15:03.915Z,52.76
2019-02-15T19:19:11.116Z,52.88
2019-02-15T19:23:18.648Z,53.18
2019-02-15T19:27:26.539Z,53.55
2019-02-15T19:31:33.511Z,53.45
2019-02-15T19:35:40.543Z,53.53
2019-02-15T19:39:47.828Z,53.47
2019-02-15T19:43:54.712Z,53.79
2019-02-15T19:48:02.007Z,53.91
2019-02-15T19:52:09.457Z,54.10
2019-02-15T19:56:17.011Z,54.26
2019-02-15T20:00:24.419Z,54.55
2019-02-15T20:04:31.509Z,54.54
2019-02-15T20:08:39.242Z,54.67
2019-02-15T20:12:46.450Z,54.66
2019-02-15T20:16:53.468Z,54.62
2019-02-15T20:21:05.675Z,54.77
2019-02-15T20:25:13.366Z,55.28
2019-02-15T20:29:20.411Z,55.15
2019-02-15T20:33:27.592Z,55.37
2019-02-15T20:37:34.766Z,55.52
2019-02-15T20:41:43.309Z,56.02
2019-02-15T20:45:50.327Z,56.06
2019-02-15T20:49:58.278Z,56.02
2019-02-15T20:54:05.520Z,56.33
2019-02-15T20:58:12.714Z,56.72
2019-02-15T21:02:19.809Z,56.50
2019-02-15T21:06:26.866Z,56.72
2019-02-15T21:10:33.833Z,57.57
2019-02-15T21:14:40.908Z,56.93
2019-02-15T21:18:48.078Z,56.90
2019-02-15T21:22:54.932Z,56.80
2019-02-15T21:27:01.884Z,57.05
2019-02-15T21:31:09.014Z,57.17
2019-02-15T21:35:16.129Z,57.01
2019-02-15T21:39:23.173Z,57.34
2019-02-15T21:43:30.082Z,57.56
2019-02-15T21:47:39.458Z,57.73
2019-02-15T21:51:47.430Z,57.94
2019-02-15T21:55:54.627Z,58.21
2019-02-15T22:00:01.929Z,58.17
2019-02-15T22:04:11.425Z,58.28
2019-02-15T22:08:18.647Z,58.31
2019-02-15T22:12:25.920Z,57.99
2019-02-15T22:16:34.301Z,58.31
2019-02-15T22:20:41.324Z,58.53
2019-02-15T22:24:48.509Z,58.44
2019-02-15T22:28:55.522Z,58.98
2019-02-15T22:33:02.541Z,59.47
2019-02-15T22:37:09.705Z,59.72
2019-02-15T22:41:18.425Z,59.91
2019-02-15T22:45:25.587Z,59.80
2019-02-15T22:49:42.925Z,60.07
2019-02-15T22:53:41.438Z,60.12
2019-02-15T22:57:48.606Z,60.40
2019-02-15T23:01:55.827Z,60.61
2019-02-15T23:06:03.020Z,60.58
2019-02-15T23:10:12.317Z,60.86
2019-02-15T23:14:19.406Z,61.00
2019-02-15T23:18:26.363Z,61.26
2019-02-15T23:22:33.416Z,61.15
2019-02-15T23:26:43.085Z,61.50
2019-02-15T23:30:49.963Z,62.00
2019-02-15T23:34:57.011Z,62.13
2019-02-15T23:39:05.462Z,62.16
2019-02-15T23:43:14.171Z,62.98
2019-02-15T23:47:21.169Z,62.97
2019-02-15T23:51:28.287Z,63.20
2019-02-15T23:55:35.376Z,63.34
2019-02-15T23:59:42.654Z,63.80
